createdAt,value
2019-05-10T00:00:40.128Z,93536.47
2019-05-10T00:03:27.638Z,93547.07
2019-05-10T00:06:14.041Z,93546.27
2019-05-10T00:08:44.959Z,93546.55
2019-05-10T00:11:20.167Z,93554.55
2019-05-10T00:13:59.389Z,93541.22
2019-05-10T00:16:28.110Z,93536.06
2019-05-10T00:18:56.788Z,93539.13
2019-05-10T00:21:25.472Z,93533.95
2019-05-10T00:23:54.162Z,93529.33
2019-05-10T00:26:22.868Z,93536.93
2019-05-10T00:28:51.642Z,93541.44
2019-05-10T00:31:20.311Z,93545.13
2019-05-10T00:33:48.988Z,93546.25
2019-05-10T00:36:17.683Z,93548.05
2019-05-10T00:38:46.383Z,93535.20
2019-05-10T00:41:15.056Z,93534.12
2019-05-10T00:43:43.735Z,93536.00
2019-05-10T00:46:12.422Z,93544.44
2019-05-10T00:48:41.106Z,93539.96
2019-05-10T00:51:09.810Z,93533.71
2019-05-10T00:53:38.487Z,93538.24
2019-05-10T00:56:07.157Z,93534.16
2019-05-10T00:58:35.833Z,93538.48
2019-05-10T01:01:04.723Z,93541.64
2019-05-10T01:03:33.412Z,93545.41
2019-05-10T01:06:02.116Z,93538.64
2019-05-10T01:08:30.865Z,93544.23
2019-05-10T01:10:59.550Z,93544.56
2019-05-10T01:13:28.237Z,93532.94
2019-05-10T01:15:56.928Z,93546.99
2019-05-10T01:18:25.619Z,93564.84
2019-05-10T01:20:54.304Z,93560.31
2019-05-10T01:23:22.992Z,93552.34
2019-05-10T01:25:51.678Z,93553.91
2019-05-10T01:28:20.350Z,93564.00
2019-05-10T01:30:49.172Z,93550.56
2019-05-10T01:33:17.887Z,93555.03
2019-05-10T01:35:46.566Z,93561.31
2019-05-10T01:38:15.242Z,93557.38
2019-05-10T01:40:43.957Z,93566.20
2019-05-10T01:43:12.649Z,93557.89
2019-05-10T01:45:41.431Z,93559.19
2019-05-10T01:48:10.122Z,93560.05
2019-05-10T01:50:38.810Z,93557.68
2019-05-10T01:53:07.801Z,93564.17
2019-05-10T01:55:50.913Z,93568.87
2019-05-10T01:58:06.887Z,93570.70
2019-05-10T02:00:35.596Z,93566.15
2019-05-10T02:03:04.296Z,93567.02
2019-05-10T02:05:33.002Z,93569.39
2019-05-10T02:08:01.689Z,93570.67
2019-05-10T02:10:30.479Z,93579.25
2019-05-10T02:12:59.152Z,93577.61
2019-05-10T02:15:27.898Z,93570.67
2019-05-10T02:17:56.538Z,93581.77
2019-05-10T02:20:25.267Z,93578.13
2019-05-10T02:22:53.942Z,93588.82
2019-05-10T02:25:22.615Z,93581.85
2019-05-10T02:27:51.295Z,93579.32
2019-05-10T02:30:20.186Z,93569.27
2019-05-10T02:32:48.864Z,93566.17
2019-05-10T02:35:17.633Z,93566.00
2019-05-10T02:37:46.315Z,93570.64
2019-05-10T02:40:15.782Z,93574.11
2019-05-10T02:42:44.479Z,93579.38
2019-05-10T02:45:14.053Z,93573.30
2019-05-10T02:47:42.737Z,93568.95
2019-05-10T02:50:11.633Z,93579.11
2019-05-10T02:52:40.392Z,93577.27
2019-05-10T02:55:10.546Z,93581.47
2019-05-10T02:57:39.745Z,93581.53
2019-05-10T03:00:09.239Z,93588.27
2019-05-10T03:02:38.026Z,93589.66
2019-05-10T03:05:07.942Z,93593.68
2019-05-10T03:07:40.032Z,93586.55
2019-05-10T03:10:10.825Z,93598.73
2019-05-10T03:12:42.495Z,93592.59
2019-05-10T03:15:12.476Z,93544.80
2019-05-10T03:17:41.877Z,93590.08
2019-05-10T03:20:12.190Z,93594.27
2019-05-10T03:22:44.506Z,93610.58
2019-05-10T03:25:13.864Z,93611.05
2019-05-10T03:27:42.546Z,93607.47
2019-05-10T03:30:11.289Z,93580.81
2019-05-10T03:32:40.134Z,93597.81
2019-05-10T03:35:09.973Z,93596.88
2019-05-10T03:37:38.853Z,93592.41
2019-05-10T03:40:09.155Z,93601.00
2019-05-10T03:42:37.944Z,93605.09
2019-05-10T03:45:08.110Z,93598.48
2019-05-10T03:47:36.793Z,93595.18
2019-05-10T03:50:07.579Z,93608.92
2019-05-10T03:52:36.261Z,93607.92
2019-05-10T03:55:06.189Z,93608.53
2019-05-10T03:57:34.824Z,93606.25
2019-05-10T04:00:04.950Z,93608.23
2019-05-10T04:02:33.649Z,93613.84
2019-05-10T04:05:02.336Z,93611.73
2019-05-10T04:07:31.013Z,93609.74
2019-05-10T04:09:59.710Z,93610.66
2019-05-10T04:12:28.472Z,93611.30
2019-05-10T04:14:57.203Z,93618.65
2019-05-10T04:17:25.890Z,93628.02
2019-05-10T04:19:54.581Z,93629.05
2019-05-10T04:22:23.268Z,93636.02
2019-05-10T04:24:51.988Z,93640.81
2019-05-10T04:27:31.573Z,93648.70
2019-05-10T04:29:51.106Z,93642.21
2019-05-10T04:32:19.812Z,93645.28
2019-05-10T04:34:48.501Z,93639.30
2019-05-10T04:37:17.168Z,93635.80
2019-05-10T04:39:45.862Z,93643.87
2019-05-10T04:42:14.648Z,93648.81
2019-05-10T04:44:43.527Z,93651.08
2019-05-10T04:47:12.471Z,93662.58
2019-05-10T04:49:41.272Z,93661.02
2019-05-10T04:52:10.008Z,93683.64
2019-05-10T04:54:38.951Z,93703.19
2019-05-10T04:57:07.762Z,93723.38
2019-05-10T04:59:36.536Z,93724.83
2019-05-10T05:02:05.344Z,93729.95
2019-05-10T05:04:34.398Z,93727.77
2019-05-10T05:07:03.458Z,93739.01
2019-05-10T05:09:32.316Z,93743.89
2019-05-10T05:12:01.083Z,93749.76
2019-05-10T05:14:29.906Z,93753.73
2019-05-10T05:16:58.663Z,93757.91
2019-05-10T05:19:27.309Z,93752.48
2019-05-10T05:21:56.203Z,93744.91
2019-05-10T05:24:24.902Z,93740.91
2019-05-10T05:26:53.878Z,93747.30
2019-05-10T05:29:22.556Z,93753.66
2019-05-10T05:31:53.995Z,93751.83
2019-05-10T05:34:21.648Z,93743.98
2019-05-10T05:36:50.527Z,93735.17
2019-05-10T05:39:19.210Z,93699.72
2019-05-10T05:41:49.711Z,93745.42
2019-05-10T05:44:20.369Z,93748.20
2019-05-10T05:46:48.868Z,93722.37
2019-05-10T05:49:17.527Z,93756.50
2019-05-10T05:51:46.264Z,93757.02
2019-05-10T05:54:20.081Z,93757.20
2019-05-10T05:56:50.764Z,93755.20
2019-05-10T05:59:17.451Z,93759.02
2019-05-10T06:01:46.404Z,93761.84
2019-05-10T06:04:15.109Z,93754.69
2019-05-10T06:06:43.789Z,93762.16
2019-05-10T06:09:12.488Z,93769.22
2019-05-10T06:11:41.170Z,93771.02
2019-05-10T06:14:12.516Z,93765.91
2019-05-10T06:16:44.953Z,93762.86
2019-05-10T06:19:11.063Z,93769.32
2019-05-10T06:21:39.735Z,93766.84
2019-05-10T06:24:13.314Z,93767.80
2019-05-10T06:26:39.070Z,93767.56
2019-05-10T06:29:16.115Z,93774.42
2019-05-10T06:31:38.238Z,93772.27
2019-05-10T06:34:06.903Z,93773.70
2019-05-10T06:36:35.582Z,93776.08
2019-05-10T06:39:07.008Z,93775.06
2019-05-10T06:41:35.677Z,93778.19
2019-05-10T06:44:04.759Z,93774.95
2019-05-10T06:46:33.599Z,93782.44
2019-05-10T06:49:08.610Z,93784.91
2019-05-10T06:51:34.167Z,93780.63
2019-05-10T06:54:02.932Z,93785.11
2019-05-10T06:56:32.087Z,93783.43
2019-05-10T06:59:13.135Z,93786.87
2019-05-10T07:01:32.034Z,93784.05
2019-05-10T07:04:00.801Z,93794.58
2019-05-10T07:06:29.540Z,93798.33
2019-05-10T07:08:59.524Z,93801.77
2019-05-10T07:11:28.764Z,93801.21
2019-05-10T07:13:57.497Z,93805.51
2019-05-10T07:16:26.342Z,93804.87
2019-05-10T07:19:00.603Z,93808.41
2019-05-10T07:21:25.541Z,93805.56
2019-05-10T07:23:54.235Z,93810.65
2019-05-10T07:26:26.311Z,93803.02
2019-05-10T07:28:59.360Z,93786.44
2019-05-10T07:31:27.126Z,93804.09
2019-05-10T07:33:55.838Z,93803.52
2019-05-10T07:36:27.199Z,93808.77
2019-05-10T07:38:55.038Z,93813.50
2019-05-10T07:41:26.804Z,93800.29
2019-05-10T07:44:00.906Z,93804.33
2019-05-10T07:46:24.576Z,93803.11
2019-05-10T07:48:53.898Z,93816.11
2019-05-10T07:51:28.511Z,93812.78
2019-05-10T07:53:56.968Z,93782.85
2019-05-10T07:56:24.301Z,93817.33
2019-05-10T07:58:52.986Z,93817.65
2019-05-10T08:01:31.845Z,93816.69
2019-05-10T08:03:52.589Z,93823.39
2019-05-10T08:06:23.868Z,93825.55
2019-05-10T08:08:55.423Z,93829.23
2019-05-10T08:11:24.533Z,93810.30
2019-05-10T08:13:57.808Z,93834.48
2019-05-10T08:16:23.712Z,93845.27
2019-05-10T08:18:55.627Z,93843.59
2019-05-10T08:21:26.265Z,93837.25
2019-05-10T08:23:54.082Z,93850.80
2019-05-10T08:26:24.848Z,93851.61
2019-05-10T08:28:53.617Z,93845.30
2019-05-10T08:31:25.972Z,93852.11
2019-05-10T08:33:58.358Z,93852.03
2019-05-10T08:36:23.124Z,93854.56
2019-05-10T08:39:05.153Z,93853.65
2019-05-10T08:41:22.495Z,93857.54
2019-05-10T08:43:52.569Z,93858.15
2019-05-10T08:46:29.123Z,93856.80
2019-05-10T08:48:53.834Z,93853.88
2019-05-10T08:51:22.938Z,93867.52
2019-05-10T08:53:53.430Z,93864.25
2019-05-10T08:56:24.161Z,93830.33
2019-05-10T08:58:53.561Z,93876.02
2019-05-10T09:01:29.650Z,93868.87
2019-05-10T09:03:59.327Z,93878.67
2019-05-10T09:06:23.433Z,93879.77
2019-05-10T09:09:01.374Z,93879.17
2019-05-10T09:11:23.236Z,93875.34
2019-05-10T09:13:53.405Z,93881.92
2019-05-10T09:16:29.153Z,93881.04
2019-05-10T09:18:54.794Z,93882.52
2019-05-10T09:21:23.515Z,93881.06
2019-05-10T09:24:01.137Z,93874.55
2019-05-10T09:26:23.089Z,93866.20
2019-05-10T09:28:55.585Z,93870.23
2019-05-10T09:31:25.534Z,93873.64
2019-05-10T09:33:54.349Z,93880.13
2019-05-10T09:36:30.973Z,93872.31
2019-05-10T09:38:55.373Z,93874.28
2019-05-10T09:41:27.581Z,93882.34
2019-05-10T09:43:54.745Z,93872.39
2019-05-10T09:46:23.506Z,93865.64
2019-05-10T09:48:54.771Z,93850.92
2019-05-10T09:51:27.992Z,93868.64
2019-05-10T09:53:57.633Z,93859.16
2019-05-10T09:56:27.594Z,93866.72
2019-05-10T09:58:58.220Z,93871.31
2019-05-10T10:01:28.212Z,93866.59
2019-05-10T10:03:58.320Z,93865.08
2019-05-10T10:06:29.699Z,93864.57
2019-05-10T10:09:00.924Z,93868.80
2019-05-10T10:11:30.035Z,93865.11
2019-05-10T10:14:01.831Z,93870.47
2019-05-10T10:16:29.281Z,93858.97
2019-05-10T10:18:58.080Z,93854.57
2019-05-10T10:21:31.483Z,93868.36
2019-05-10T10:24:00.306Z,93867.69
2019-05-10T10:26:27.795Z,93871.15
2019-05-10T10:28:57.857Z,93866.02
2019-05-10T10:31:33.314Z,93864.55
2019-05-10T10:34:02.679Z,93877.95
2019-05-10T10:36:30.035Z,93865.39
2019-05-10T10:38:59.631Z,93866.84
2019-05-10T10:41:31.707Z,93869.23
2019-05-10T10:43:58.859Z,93875.13
2019-05-10T10:46:34.510Z,93872.63
2019-05-10T10:49:02.101Z,93868.09
2019-05-10T10:51:32.422Z,93879.57
2019-05-10T10:54:01.606Z,93885.22
2019-05-10T10:56:30.508Z,93879.56
2019-05-10T10:58:59.276Z,93885.66
2019-05-10T11:01:33.219Z,93875.28
2019-05-10T11:04:03.501Z,93887.59
2019-05-10T11:06:28.997Z,93905.86
2019-05-10T11:08:57.968Z,93894.34
2019-05-10T11:11:30.477Z,93896.03
2019-05-10T11:14:03.476Z,93902.00
2019-05-10T11:16:27.483Z,93910.83
2019-05-10T11:18:56.200Z,93909.40
2019-05-10T11:21:28.601Z,93895.09
2019-05-10T11:23:55.310Z,93896.45
2019-05-10T11:26:26.882Z,93897.59
2019-05-10T11:28:54.654Z,93909.80
2019-05-10T11:31:24.314Z,93909.23
2019-05-10T11:33:58.512Z,93894.24
2019-05-10T11:36:23.508Z,93914.55
2019-05-10T11:38:58.310Z,93916.13
2019-05-10T11:41:24.571Z,93915.37
2019-05-10T11:43:57.812Z,93915.46
2019-05-10T11:46:23.769Z,93910.73
2019-05-10T11:48:52.502Z,93914.77
2019-05-10T11:51:21.438Z,93782.86
2019-05-10T11:53:55.438Z,93912.56
2019-05-10T11:56:26.825Z,93906.80
2019-05-10T11:58:55.364Z,93908.91
2019-05-10T12:01:24.495Z,93904.14
2019-05-10T12:03:53.595Z,93906.11
2019-05-10T12:06:22.257Z,93890.59
2019-05-10T12:08:56.849Z,93905.97
2019-05-10T12:11:33.010Z,93896.66
2019-05-10T12:13:57.233Z,93895.02
2019-05-10T12:16:24.133Z,93899.26
2019-05-10T12:19:17.068Z,93890.96
2019-05-10T12:21:23.292Z,93889.80
2019-05-10T12:23:56.350Z,93885.34
2019-05-10T12:28:52.968Z,93867.81
2019-05-10T12:31:23.314Z,93875.31
2019-05-10T12:33:52.325Z,93880.41
2019-05-10T12:36:27.336Z,93876.64
2019-05-10T12:38:56.017Z,93885.07
2019-05-10T12:41:24.069Z,93877.99
2019-05-10T12:44:02.852Z,93876.18
2019-05-10T12:46:23.513Z,93870.59
2019-05-10T12:48:52.185Z,93878.66
2019-05-10T12:51:21.205Z,93877.30
2019-05-10T12:53:52.084Z,93877.12
2019-05-10T12:56:20.673Z,93862.67
2019-05-10T12:58:56.821Z,93878.79
2019-05-10T13:01:25.558Z,93873.52
2019-05-10T13:06:26.761Z,93875.05
2019-05-10T13:08:55.949Z,93883.56
2019-05-10T13:11:26.993Z,93875.89
2019-05-10T13:13:55.659Z,93870.23
2019-05-10T13:16:24.335Z,93841.56
2019-05-10T13:18:53.034Z,93888.92
2019-05-10T13:21:23.156Z,93880.37
2019-05-10T13:23:53.876Z,93890.52
2019-05-10T13:26:22.605Z,93886.34
2019-05-10T13:28:51.353Z,93893.55
2019-05-10T13:31:20.218Z,93890.06
2019-05-10T13:33:48.941Z,93884.30
2019-05-10T13:36:17.773Z,93890.09
2019-05-10T13:38:49.202Z,93893.22
2019-05-10T13:41:17.935Z,93897.15
2019-05-10T13:43:47.439Z,93906.38
2019-05-10T13:46:16.309Z,93904.62
2019-05-10T13:48:45.051Z,93904.72
2019-05-10T13:51:13.940Z,93912.22
2019-05-10T13:53:42.615Z,93910.48
2019-05-10T13:56:11.327Z,93909.39
2019-05-10T13:58:41.407Z,93903.70
2019-05-10T14:01:13.174Z,93904.39
2019-05-10T14:03:45.259Z,93898.05
2019-05-10T14:06:11.159Z,93898.66
2019-05-10T14:08:42.789Z,93905.85
2019-05-10T14:11:10.368Z,93899.25
2019-05-10T14:13:41.391Z,93905.98
2019-05-10T14:16:18.238Z,93913.50
2019-05-10T14:18:39.932Z,93910.80
2019-05-10T14:21:08.728Z,93918.95
2019-05-10T14:23:39.348Z,93927.26
2019-05-10T14:26:09.122Z,93918.22
2019-05-10T14:28:38.469Z,93926.80
2019-05-10T14:31:07.536Z,93923.77
2019-05-10T14:33:36.290Z,93926.05
2019-05-10T14:36:05.162Z,93917.05
2019-05-10T14:38:34.011Z,93919.91
2019-05-10T14:41:04.225Z,93916.20
2019-05-10T14:43:33.128Z,93916.26
2019-05-10T14:46:01.829Z,93900.20
2019-05-10T14:48:32.024Z,93924.16
2019-05-10T14:51:02.985Z,93918.87
2019-05-10T14:53:31.413Z,93904.72
2019-05-10T14:56:00.138Z,93923.71
2019-05-10T14:58:28.807Z,93932.62
2019-05-10T15:00:57.566Z,93919.67
2019-05-10T15:03:26.260Z,93916.54
2019-05-10T15:06:00.824Z,93925.22
2019-05-10T15:08:25.338Z,93926.69
2019-05-10T15:10:57.039Z,93924.92
2019-05-10T15:13:26.021Z,93929.51
2019-05-10T15:15:54.822Z,93927.88
2019-05-10T15:18:23.540Z,93928.94
2019-05-10T15:20:52.437Z,93925.36
2019-05-10T15:23:21.086Z,93925.50
2019-05-10T15:25:57.235Z,93927.67
2019-05-10T15:28:20.161Z,93917.16
2019-05-10T15:30:52.367Z,93916.59
2019-05-10T15:33:19.234Z,93919.59
2019-05-10T15:35:51.727Z,93912.05
2019-05-10T15:38:18.426Z,93914.71
2019-05-10T15:40:47.098Z,93912.26
2019-05-10T15:43:16.973Z,93919.05
2019-05-10T15:45:52.695Z,93892.02
2019-05-10T15:48:16.963Z,93904.00
2019-05-10T15:50:45.673Z,93915.64
2019-05-10T15:53:19.350Z,93909.55
2019-05-10T15:55:44.790Z,93906.15
2019-05-10T15:58:13.474Z,93914.69
2019-05-10T16:00:42.136Z,93900.43
2019-05-10T16:03:10.798Z,93901.97
2019-05-10T16:05:43.391Z,93908.39
2019-05-10T16:08:13.383Z,93905.83
2019-05-10T16:10:41.003Z,93912.16
2019-05-10T16:13:14.535Z,93907.98
2019-05-10T16:15:40.224Z,93913.14
2019-05-10T16:18:08.992Z,93914.55
2019-05-10T16:20:39.038Z,93919.72
2019-05-10T16:23:09.153Z,93922.25
2019-05-10T16:25:42.705Z,93925.39
2019-05-10T16:28:08.700Z,93922.94
2019-05-10T16:30:37.397Z,93928.86
2019-05-10T16:33:09.784Z,93928.83
2019-05-10T16:35:38.911Z,93922.17
2019-05-10T16:38:07.051Z,93921.23
2019-05-10T16:40:35.808Z,93927.44
2019-05-10T16:43:06.696Z,93923.55
2019-05-10T16:45:34.953Z,93924.11
2019-05-10T16:48:05.995Z,93930.97
2019-05-10T16:50:34.024Z,93932.91
2019-05-10T16:53:05.642Z,93931.66
2019-05-10T16:55:35.531Z,93914.70
2019-05-10T16:58:03.545Z,93925.01
2019-05-10T17:00:32.274Z,93927.66
2019-05-10T17:03:00.962Z,93926.05
2019-05-10T17:05:29.746Z,93933.66
2019-05-10T17:07:59.084Z,93935.87
2019-05-10T17:10:32.870Z,93943.05
2019-05-10T17:13:04.743Z,93935.33
2019-05-10T17:15:33.746Z,93935.05
2019-05-10T17:18:00.211Z,93942.63
2019-05-10T17:20:28.891Z,93933.89
2019-05-10T17:23:07.981Z,93945.70
2019-05-10T17:25:27.973Z,93947.18
2019-05-10T17:27:59.836Z,93953.30
2019-05-10T17:30:27.766Z,93960.57
2019-05-10T17:32:57.692Z,93963.13
2019-05-10T17:35:27.097Z,93964.80
2019-05-10T17:37:55.771Z,93970.39
2019-05-10T17:40:24.448Z,93976.28
2019-05-10T17:42:53.124Z,93973.55
2019-05-10T17:45:21.796Z,93980.50
2019-05-10T17:47:50.484Z,93977.34
2019-05-10T17:50:19.705Z,93979.44
2019-05-10T17:52:48.372Z,93986.28
2019-05-10T17:55:18.540Z,93986.70
2019-05-10T17:57:48.752Z,93987.58
2019-05-10T18:00:18.195Z,93994.20
2019-05-10T18:02:46.890Z,93993.89
2019-05-10T18:05:15.885Z,93991.77
2019-05-10T18:07:44.571Z,93998.31
2019-05-10T18:10:13.572Z,93998.84
2019-05-10T18:12:42.226Z,94000.83
2019-05-10T18:15:11.331Z,93997.89
2019-05-10T18:17:39.995Z,93993.67
2019-05-10T18:20:09.471Z,94001.05
2019-05-10T18:22:43.058Z,94010.84
2019-05-10T18:25:19.342Z,94014.00
2019-05-10T18:27:39.015Z,94008.73
2019-05-10T18:30:08.394Z,94010.30
2019-05-10T18:32:37.265Z,94010.06
2019-05-10T18:35:14.257Z,94013.64
2019-05-10T18:37:37.897Z,94010.17
2019-05-10T18:40:08.172Z,94011.84
2019-05-10T18:42:36.835Z,94023.63
2019-05-10T18:45:08.599Z,94020.05
2019-05-10T18:47:37.309Z,94019.51
2019-05-10T18:50:06.683Z,94029.41
2019-05-10T18:52:35.351Z,94028.79
2019-05-10T18:55:04.627Z,94030.34
2019-05-10T18:57:33.287Z,94035.22
2019-05-10T19:00:02.100Z,94035.83
2019-05-10T19:02:30.820Z,94033.33
2019-05-10T19:04:59.501Z,94037.84
2019-05-10T19:07:28.194Z,94046.89
2019-05-10T19:09:56.849Z,94039.63
2019-05-10T19:12:25.924Z,94046.66
2019-05-10T19:14:54.877Z,94042.23
2019-05-10T19:17:23.568Z,94041.16
2019-05-10T19:19:52.235Z,94047.70
2019-05-10T19:22:20.904Z,94041.19
2019-05-10T19:24:49.570Z,94046.45
2019-05-10T19:27:18.245Z,94040.03
2019-05-10T19:29:47.929Z,94021.97
2019-05-10T19:32:17.954Z,94050.86
2019-05-10T19:34:47.776Z,94047.55
2019-05-10T19:37:29.693Z,94047.72
2019-05-10T19:39:47.825Z,94055.09
2019-05-10T19:42:16.500Z,94060.44
2019-05-10T19:44:45.167Z,94063.79
2019-05-10T19:47:17.699Z,94065.27
2019-05-10T19:49:45.732Z,94065.13
2019-05-10T19:52:14.626Z,94072.92
2019-05-10T19:54:43.293Z,94073.52
2019-05-10T19:57:16.186Z,94068.97
2019-05-10T19:59:43.963Z,94072.61
2019-05-10T20:02:12.752Z,94068.03
2019-05-10T20:04:41.423Z,94072.22
2019-05-10T20:07:10.103Z,94072.06
2019-05-10T20:09:38.766Z,94079.15
2019-05-10T20:12:07.501Z,94075.17
2019-05-10T20:14:36.146Z,94077.78
2019-05-10T20:17:05.075Z,94072.67
2019-05-10T20:19:33.765Z,94075.94
2019-05-10T20:22:02.845Z,94079.91
2019-05-10T20:24:31.529Z,94085.49
2019-05-10T20:27:00.194Z,94082.71
2019-05-10T20:29:28.864Z,94082.98
2019-05-10T20:31:57.541Z,94085.19
2019-05-10T20:34:26.223Z,94088.31
2019-05-10T20:36:54.885Z,94091.05
2019-05-10T20:39:23.812Z,94087.45
2019-05-10T20:41:52.466Z,94088.41
2019-05-10T20:44:21.324Z,94090.12
2019-05-10T20:46:49.945Z,94093.48
2019-05-10T20:49:18.606Z,94093.60
2019-05-10T20:51:47.286Z,94090.59
2019-05-10T20:54:15.955Z,94090.20
2019-05-10T20:56:44.631Z,94098.39
2019-05-10T20:59:13.292Z,94094.75
2019-05-10T21:01:42.074Z,94103.06
2019-05-10T21:04:10.761Z,94093.70
2019-05-10T21:06:39.484Z,94100.70
2019-05-10T21:09:08.160Z,94099.85
2019-05-10T21:11:36.852Z,94098.53
2019-05-10T21:14:05.624Z,94103.61
2019-05-10T21:16:34.311Z,94100.36
2019-05-10T21:19:03.012Z,94100.48
2019-05-10T21:21:31.657Z,94107.80
2019-05-10T21:24:00.498Z,94109.63
2019-05-10T21:26:29.167Z,94117.67
2019-05-10T21:28:57.841Z,94116.69
2019-05-10T21:31:26.509Z,94115.33
2019-05-10T21:34:08.510Z,94112.98
2019-05-10T21:36:25.578Z,94122.03
2019-05-10T21:38:54.268Z,94122.34
2019-05-10T21:41:22.958Z,94122.34
2019-05-10T21:43:51.652Z,94128.54
2019-05-10T21:46:20.581Z,94124.31
2019-05-10T21:48:49.258Z,94120.16
2019-05-10T21:51:17.924Z,94125.88
2019-05-10T21:53:46.618Z,94126.42
2019-05-10T21:56:15.290Z,94124.91
2019-05-10T21:58:43.986Z,94125.63
2019-05-10T22:01:13.050Z,94124.94
2019-05-10T22:03:41.765Z,94133.32
2019-05-10T22:06:10.428Z,94135.53
2019-05-10T22:08:49.129Z,94135.84
2019-05-10T22:11:09.493Z,94138.39
2019-05-10T22:13:38.172Z,94139.27
2019-05-10T22:16:06.848Z,94137.30
2019-05-10T22:18:37.087Z,94137.21
2019-05-10T22:21:05.760Z,94134.11
2019-05-10T22:23:34.464Z,94143.22
2019-05-10T22:26:03.130Z,94133.59
2019-05-10T22:28:31.802Z,94138.73
2019-05-10T22:31:00.475Z,94138.73
2019-05-10T22:33:29.143Z,94132.69
2019-05-10T22:35:57.797Z,94138.63
2019-05-10T22:38:26.523Z,94145.76
2019-05-10T22:40:55.203Z,94130.04
2019-05-10T22:43:23.927Z,94137.84
2019-05-10T22:45:52.593Z,94133.95
2019-05-10T22:48:21.274Z,94135.05
2019-05-10T22:50:50.200Z,94138.88
2019-05-10T22:53:18.858Z,94143.67
2019-05-10T22:55:47.541Z,94142.19
2019-05-10T22:58:16.205Z,94146.34
2019-05-10T23:00:44.872Z,94148.95
2019-05-10T23:03:13.533Z,94141.03
2019-05-10T23:05:42.210Z,94151.22
2019-05-10T23:08:10.879Z,94152.22
2019-05-10T23:10:39.568Z,94153.52
2019-05-10T23:13:08.220Z,94146.45
2019-05-10T23:15:37.391Z,94148.89
2019-05-10T23:18:06.079Z,94152.86
2019-05-10T23:20:34.759Z,94124.78
2019-05-10T23:23:03.439Z,94151.23
2019-05-10T23:25:32.736Z,94148.37
2019-05-10T23:28:01.417Z,94158.27
2019-05-10T23:30:30.096Z,94150.84
2019-05-10T23:32:58.963Z,94156.83
2019-05-10T23:35:27.819Z,94155.91
2019-05-10T23:37:56.647Z,94151.42
2019-05-10T23:40:25.482Z,94138.58
2019-05-10T23:42:54.294Z,94158.00
2019-05-10T23:45:23.121Z,94159.70
2019-05-10T23:47:51.968Z,94166.23
2019-05-10T23:50:20.819Z,94162.36
2019-05-10T23:52:49.652Z,94163.58
2019-05-10T23:55:18.934Z,94158.66
2019-05-10T23:57:47.878Z,94160.87
